Time;durP1;ratioP1;P1;durP2;ratioP2;P2;SDS_P1;SDS_P2;PMS_P1;PMS_P2;Temp;Humidity;BMP_temperature;BMP_pressure;BME280_temperature;BME280_humidity;BME280_pressure;Samples;Min_cycle;Max_cycle;Signal;HPM_P1;HPM_P2
2022/07/23 00:00:51;;;;;;;6.88;4.53;;;14.60;99.90;;;;;;4904031;28;20054;-76
2022/07/23 00:03:17;;;;;;;9.00;4.28;;;14.50;99.90;;;;;;4909061;28;20063;-78
2022/07/23 00:05:43;;;;;;;6.80;4.63;;;14.50;99.90;;;;;;4882090;28;20287;-78
2022/07/23 00:08:09;;;;;;;6.40;4.68;;;14.40;99.90;;;;;;4894897;28;20571;-77
2022/07/23 00:10:35;;;;;;;7.35;4.68;;;14.40;99.90;;;;;;4911493;28;20723;-78
2022/07/23 00:13:02;;;;;;;7.88;5.03;;;14.30;99.90;;;;;;4862898;29;20085;-78
2022/07/23 00:15:28;;;;;;;5.90;4.22;;;14.20;99.90;;;;;;4907082;28;20494;-78
2022/07/23 00:17:54;;;;;;;6.78;5.30;;;14.20;99.90;;;;;;4881254;29;20494;-78
2022/07/23 00:20:20;;;;;;;7.90;4.72;;;14.10;99.90;;;;;;4880538;28;20073;-78
2022/07/23 00:22:48;;;;;;;8.65;4.88;;;14.00;99.90;;;;;;4879092;28;20047;-78
2022/07/23 00:25:14;;;;;;;7.13;5.57;;;14.00;99.90;;;;;;4921219;28;20055;-78
2022/07/23 00:27:41;;;;;;;9.38;5.47;;;14.00;99.90;;;;;;4893694;29;20118;-78
2022/07/23 00:30:08;;;;;;;6.22;5.07;;;13.90;99.90;;;;;;4895368;28;20101;-78
2022/07/23 00:32:49;;;;;;;8.70;5.28;;;13.80;99.90;;;;;;4893948;28;20055;-77
2022/07/23 00:35:18;;;;;;;7.47;4.60;;;13.80;99.90;;;;;;4894035;28;20050;-78
2022/07/23 00:37:45;;;;;;;10.07;5.80;;;13.80;99.90;;;;;;4892536;28;20743;-78
2022/07/23 00:40:12;;;;;;;7.05;5.22;;;13.70;99.90;;;;;;4910060;28;20179;-78
2022/07/23 00:42:39;;;;;;;6.13;4.93;;;13.60;99.90;;;;;;4926295;29;20117;-78
2022/07/23 00:45:05;;;;;;;6.13;5.10;;;13.60;99.90;;;;;;4891867;28;20424;-77
2022/07/23 00:47:32;;;;;;;5.93;4.82;;;13.50;99.90;;;;;;4909568;28;20583;-77
2022/07/23 00:49:58;;;;;;;6.18;5.57;;;13.50;99.90;;;;;;4926260;28;20050;-77
2022/07/23 00:52:24;;;;;;;8.80;5.95;;;13.40;99.90;;;;;;4880351;29;20154;-76
2022/07/23 00:54:51;;;;;;;8.85;5.25;;;13.40;99.90;;;;;;4877535;28;20059;-78
2022/07/23 00:57:17;;;;;;;7.55;4.80;;;13.30;99.90;;;;;;4879183;29;20051;-79
2022/07/23 00:59:46;;;;;;;6.47;4.95;;;13.30;99.90;;;;;;4912331;28;20051;-79
2022/07/23 01:02:12;;;;;;;7.95;4.85;;;13.30;99.90;;;;;;4905730;28;20455;-78
2022/07/23 01:04:39;;;;;;;6.70;5.07;;;13.20;99.90;;;;;;4895947;29;20146;-78
2022/07/23 01:07:05;;;;;;;7.78;4.72;;;13.10;99.90;;;;;;4862367;29;20130;-78
2022/07/23 01:09:32;;;;;;;7.13;4.78;;;13.10;99.90;;;;;;4926706;29;20055;-78
2022/07/23 01:11:59;;;;;;;5.13;4.40;;;13.00;99.90;;;;;;4924670;28;20047;-78
2022/07/23 01:14:25;;;;;;;9.18;4.68;;;13.00;99.90;;;;;;4876920;28;20143;-78
2022/07/23 01:16:52;;;;;;;7.00;4.85;;;13.00;99.90;;;;;;4893867;29;20047;-78
2022/07/23 01:19:19;;;;;;;7.10;5.18;;;13.00;99.90;;;;;;4910871;28;20110;-78
2022/07/23 01:21:51;;;;;;;5.20;4.22;;;12.90;99.90;;;;;;4923872;29;20073;-78
2022/07/23 01:24:21;;;;;;;10.00;5.40;;;12.90;99.90;;;;;;4893143;29;20678;-78
2022/07/23 01:27:05;;;;;;;9.15;4.82;;;12.80;99.90;;;;;;4913218;29;20043;-78
2022/07/23 01:29:33;;;;;;;6.55;5.00;;;12.80;99.90;;;;;;4876434;28;20047;-78
2022/07/23 01:32:03;;;;;;;5.93;4.88;;;12.80;99.90;;;;;;4890213;29;20693;-78
2022/07/23 01:34:30;;;;;;;7.60;4.88;;;12.80;99.90;;;;;;4893551;29;20062;-79
2022/07/23 01:36:56;;;;;;;8.38;4.65;;;12.70;99.90;;;;;;4863146;29;20053;-78
2022/07/23 01:39:23;;;;;;;7.53;4.57;;;12.70;99.90;;;;;;4878975;29;20094;-78
2022/07/23 01:41:51;;;;;;;9.90;4.53;;;12.70;99.90;;;;;;4874473;28;20063;-78
2022/07/23 01:44:17;;;;;;;6.90;4.95;;;12.60;99.90;;;;;;4867009;29;20407;-77
2022/07/23 01:46:43;;;;;;;5.75;4.55;;;12.60;99.90;;;;;;4860478;28;20039;-78
2022/07/23 01:49:10;;;;;;;8.75;5.38;;;12.60;99.90;;;;;;4925012;28;20567;-77
2022/07/23 01:52:00;;;;;;;7.30;5.43;;;12.60;99.90;;;;;;4893888;28;20051;-78
2022/07/23 01:54:40;;;;;;;6.57;5.28;;;12.60;99.90;;;;;;4912022;28;20046;-77
2022/07/23 01:57:08;;;;;;;7.47;6.25;;;12.50;99.90;;;;;;4911227;28;20495;-78
2022/07/23 01:59:35;;;;;;;6.15;4.88;;;12.50;99.90;;;;;;4916942;28;20158;-79
2022/07/23 02:02:03;;;;;;;5.72;4.60;;;12.50;99.90;;;;;;4894586;29;20131;-78
2022/07/23 02:04:30;;;;;;;5.07;3.72;;;12.40;99.90;;;;;;4891815;28;20891;-78
2022/07/23 02:06:56;;;;;;;3.90;3.00;;;12.40;99.90;;;;;;4883413;28;20039;-78
2022/07/23 02:09:22;;;;;;;5.28;3.47;;;12.40;99.90;;;;;;4881757;28;20082;-78
2022/07/23 02:11:49;;;;;;;3.95;3.00;;;12.40;99.90;;;;;;4915065;29;20081;-78
2022/07/23 02:14:15;;;;;;;5.55;3.05;;;12.40;99.90;;;;;;4894267;29;20058;-78
2022/07/23 02:16:41;;;;;;;4.45;2.35;;;12.40;99.90;;;;;;4913411;29;20062;-78
2022/07/23 02:19:07;;;;;;;2.30;1.73;;;12.40;99.90;;;;;;4882555;29;20050;-78
2022/07/23 02:21:36;;;;;;;5.35;2.05;;;12.30;99.90;;;;;;4908419;29;20087;-78
2022/07/23 02:24:02;;;;;;;4.88;2.90;;;12.30;99.90;;;;;;4899110;28;20053;-78
2022/07/23 02:26:29;;;;;;;4.05;3.03;;;12.20;99.90;;;;;;4906784;28;20093;-79
2022/07/23 02:28:56;;;;;;;3.22;2.08;;;12.20;99.90;;;;;;4910473;29;20035;-78
2022/07/23 02:31:22;;;;;;;2.95;2.00;;;12.10;99.90;;;;;;4908402;29;20071;-78
2022/07/23 02:33:48;;;;;;;2.55;1.70;;;12.10;99.90;;;;;;4873376;29;20094;-78
2022/07/23 02:36:16;;;;;;;3.00;1.98;;;12.10;99.90;;;;;;4873681;29;20065;-78
2022/07/23 02:38:42;;;;;;;2.92;2.10;;;12.00;99.90;;;;;;4899335;29;20093;-78
2022/07/23 02:41:08;;;;;;;2.75;2.15;;;12.00;99.90;;;;;;4892560;29;20786;-78
2022/07/23 02:43:35;;;;;;;4.47;2.03;;;11.90;99.90;;;;;;4894208;28;20046;-78
2022/07/23 02:46:01;;;;;;;2.83;1.88;;;11.90;99.90;;;;;;4882603;28;20043;-78
2022/07/23 02:48:27;;;;;;;5.22;2.58;;;11.90;99.90;;;;;;4892991;28;20102;-78
2022/07/23 02:50:56;;;;;;;3.42;2.22;;;11.90;99.90;;;;;;4888685;29;20043;-78
2022/07/23 02:53:26;;;;;;;3.50;2.63;;;11.80;99.90;;;;;;4881074;29;20134;-79
2022/07/23 02:55:53;;;;;;;3.53;2.63;;;11.80;99.90;;;;;;4860056;29;20051;-78
2022/07/23 02:58:21;;;;;;;4.63;3.15;;;11.80;99.90;;;;;;4892801;29;20082;-78
2022/07/23 03:00:47;;;;;;;4.72;2.97;;;11.80;99.90;;;;;;4877043;28;20474;-78
2022/07/23 03:03:13;;;;;;;4.15;2.95;;;11.70;99.90;;;;;;4876872;29;20508;-78
2022/07/23 03:05:39;;;;;;;4.13;2.67;;;11.70;99.90;;;;;;4875191;28;20491;-78
2022/07/23 03:08:05;;;;;;;3.95;2.58;;;11.70;99.90;;;;;;4894053;29;20055;-77
2022/07/23 03:10:34;;;;;;;5.55;2.75;;;11.70;99.90;;;;;;4892309;29;20046;-77
2022/07/23 03:13:00;;;;;;;4.53;2.13;;;11.60;99.90;;;;;;4861327;29;20031;-78
2022/07/23 03:15:29;;;;;;;1.90;1.42;;;11.60;99.90;;;;;;4891671;29;20496;-79
2022/07/23 03:17:55;;;;;;;2.33;1.75;;;11.60;99.90;;;;;;4878467;28;20536;-78
2022/07/23 03:20:22;;;;;;;3.70;2.30;;;11.50;99.90;;;;;;4862601;29;20125;-78
2022/07/23 03:22:48;;;;;;;3.95;2.90;;;11.50;99.90;;;;;;4859584;29;20057;-78
2022/07/23 03:25:16;;;;;;;4.32;2.72;;;11.40;99.90;;;;;;4907203;28;20512;-78
2022/07/23 03:27:42;;;;;;;5.50;2.75;;;11.40;99.90;;;;;;4894173;28;20061;-78
2022/07/23 03:30:09;;;;;;;3.88;2.97;;;11.40;99.90;;;;;;4894678;28;20055;-78
2022/07/23 03:32:35;;;;;;;3.58;2.28;;;11.30;99.90;;;;;;4878401;29;20082;-78
2022/07/23 03:35:01;;;;;;;3.35;2.10;;;11.30;99.90;;;;;;4875001;29;20047;-78
2022/07/23 03:37:28;;;;;;;3.10;2.42;;;11.30;99.90;;;;;;4859359;28;20117;-78
2022/07/23 03:39:56;;;;;;;2.67;2.10;;;11.40;99.90;;;;;;4892097;29;20871;-78
2022/07/23 03:42:22;;;;;;;4.22;2.38;;;11.30;99.90;;;;;;4859573;29;20051;-78
2022/07/23 03:44:51;;;;;;;3.42;2.40;;;11.40;99.90;;;;;;4891897;28;20047;-78
2022/07/23 03:47:21;;;;;;;3.70;2.47;;;11.40;99.90;;;;;;4922869;29;20095;-77
2022/07/23 03:49:48;;;;;;;4.70;3.15;;;11.40;99.90;;;;;;4863784;29;20508;-78
2022/07/23 03:52:14;;;;;;;2.25;1.77;;;11.40;99.90;;;;;;4877083;29;20051;-78
2022/07/23 03:54:40;;;;;;;3.05;2.25;;;11.40;99.90;;;;;;4858581;29;20477;-78
2022/07/23 03:57:07;;;;;;;3.97;2.20;;;11.40;99.90;;;;;;4891644;29;20217;-78
2022/07/23 03:59:33;;;;;;;3.28;2.17;;;11.40;99.90;;;;;;4892328;28;20058;-78
2022/07/23 04:01:59;;;;;;;3.67;2.20;;;11.40;99.90;;;;;;4879288;28;20094;-78
2022/07/23 04:04:25;;;;;;;2.97;1.85;;;11.30;99.90;;;;;;4874392;28;20083;-78
2022/07/23 04:06:52;;;;;;;3.00;1.83;;;11.30;99.90;;;;;;4909238;29;20051;-78
2022/07/23 04:09:18;;;;;;;4.20;2.30;;;11.20;99.90;;;;;;4877792;29;20145;-79
2022/07/23 04:11:45;;;;;;;4.53;2.47;;;11.20;99.90;;;;;;4876618;29;20048;-78
2022/07/23 04:14:11;;;;;;;3.00;2.38;;;11.20;99.90;;;;;;4893365;29;20134;-78
2022/07/23 04:16:37;;;;;;;3.90;2.80;;;11.20;99.90;;;;;;4877783;29;20051;-78
2022/07/23 04:19:04;;;;;;;3.83;2.40;;;11.20;99.90;;;;;;4861620;29;20970;-78
2022/07/23 04:21:36;;;;;;;;;;;11.20;99.90;;;;;;4908911;29;20907;-79
2022/07/23 04:24:02;;;;;;;3.85;2.60;;;11.30;99.90;;;;;;4889044;29;20231;-78
2022/07/23 04:26:28;;;;;;;3.42;2.47;;;11.30;99.90;;;;;;4889820;29;20492;-78
2022/07/23 04:28:54;;;;;;;2.88;1.95;;;11.30;99.90;;;;;;4890816;29;20043;-78
2022/07/23 04:31:20;;;;;;;5.13;2.85;;;11.40;99.90;;;;;;4892274;29;20070;-78
2022/07/23 04:33:46;;;;;;;5.13;2.85;;;11.40;99.90;;;;;;4877213;29;20142;-78
2022/07/23 04:36:12;;;;;;;2.92;2.05;;;11.40;99.90;;;;;;4890867;29;20532;-78
2022/07/23 04:38:39;;;;;;;4.30;2.30;;;11.40;99.90;;;;;;4877303;29;20051;-78
2022/07/23 04:41:05;;;;;;;3.03;2.40;;;11.50;99.90;;;;;;4891252;29;21209;-78
2022/07/23 04:43:31;;;;;;;5.40;2.70;;;11.50;99.90;;;;;;4889472;29;20539;-78
2022/07/23 04:45:57;;;;;;;6.13;3.42;;;11.50;99.90;;;;;;4894063;29;20052;-78
2022/07/23 04:48:24;;;;;;;5.13;2.88;;;11.60;99.90;;;;;;4906686;29;20075;-78
2022/07/23 04:50:58;;;;;;;5.65;3.17;;;11.70;99.90;;;;;;4874904;29;20055;-78
2022/07/23 04:53:26;;;;;;;6.15;4.55;;;11.70;99.90;;;;;;4891048;29;20051;-78
2022/07/23 04:55:57;;;;;;;8.75;3.80;;;11.80;99.90;;;;;;4873355;29;20058;-78
2022/07/23 04:58:23;;;;;;;6.70;4.60;;;11.90;99.90;;;;;;4891829;29;20104;-78
2022/07/23 05:00:49;;;;;;;5.32;3.28;;;12.00;99.90;;;;;;4875669;29;20056;-78
2022/07/23 05:03:16;;;;;;;5.05;3.30;;;12.10;99.90;;;;;;4874516;29;20044;-78
2022/07/23 05:05:45;;;;;;;9.10;4.72;;;12.10;99.90;;;;;;4889281;29;20044;-78
2022/07/23 05:08:13;;;;;;;7.78;5.32;;;12.20;99.90;;;;;;4883814;28;20063;-78
2022/07/23 05:10:41;;;;;;;6.13;4.30;;;12.40;99.90;;;;;;4876294;28;20491;-78
2022/07/23 05:13:07;;;;;;;11.98;4.72;;;12.50;99.90;;;;;;4909144;28;20047;-78
2022/07/23 05:15:33;;;;;;;7.28;4.55;;;12.90;99.90;;;;;;4877791;29;20492;-78
2022/07/23 05:18:00;;;;;;;9.02;5.38;;;13.30;99.90;;;;;;4860970;28;20518;-78
2022/07/23 05:20:27;;;;;;;6.50;5.18;;;13.60;99.90;;;;;;4862776;29;20760;-78
2022/07/23 05:22:53;;;;;;;6.70;5.00;;;14.20;99.90;;;;;;4895499;28;20063;-78
2022/07/23 05:25:20;;;;;;;8.27;5.10;;;14.70;99.90;;;;;;4884456;28;20412;-78
2022/07/23 05:27:46;;;;;;;7.93;4.72;;;14.90;99.90;;;;;;4873590;28;20075;-78
2022/07/23 05:30:12;;;;;;;6.88;4.53;;;15.20;99.90;;;;;;4908437;28;20570;-78
2022/07/23 05:32:41;;;;;;;5.38;4.20;;;15.50;99.90;;;;;;4868539;28;20054;-79
2022/07/23 05:35:12;;;;;;;;;;;15.70;99.90;;;;;;4881676;28;20051;-79
2022/07/23 05:37:44;;;;;;;4.93;4.07;;;15.80;99.90;;;;;;4875670;29;20109;-80
2022/07/23 05:40:11;;;;;;;6.65;4.40;;;16.00;99.90;;;;;;4874576;29;20051;-79
2022/07/23 05:42:39;;;;;;;5.70;4.30;;;16.20;99.90;;;;;;4891746;29;20522;-80
2022/07/23 05:45:06;;;;;;;7.00;4.30;;;16.30;99.90;;;;;;4897368;28;20451;-79
2022/07/23 05:47:43;;;;;;;8.27;6.40;;;16.50;99.90;;;;;;4896728;29;20043;-74
2022/07/23 05:50:11;;;;;;;5.75;4.25;;;16.50;99.90;;;;;;4873855;28;20059;-74
2022/07/23 05:52:45;;;;;;;8.43;4.47;;;16.60;99.90;;;;;;4907138;29;20166;-75
2022/07/23 05:55:28;;;;;;;9.18;5.03;;;16.80;99.90;;;;;;4911259;29;20116;-74
2022/07/23 05:57:59;;;;;;;7.00;4.43;;;16.90;99.90;;;;;;4894877;29;20134;-75
2022/07/23 06:00:27;;;;;;;7.30;5.68;;;17.10;99.90;;;;;;4879282;28;20138;-79
2022/07/23 06:02:53;;;;;;;7.75;4.55;;;17.20;99.90;;;;;;4878027;28;20464;-79
2022/07/23 06:05:19;;;;;;;7.00;3.95;;;17.40;99.90;;;;;;4878572;29;20047;-81
2022/07/23 06:07:46;;;;;;;6.63;4.18;;;17.50;99.90;;;;;;4878803;29;20117;-81
2022/07/23 06:10:14;;;;;;;5.38;3.40;;;17.70;99.90;;;;;;4918949;28;20066;-79
2022/07/23 06:12:40;;;;;;;7.90;3.83;;;18.00;99.90;;;;;;4875346;29;20083;-81
2022/07/23 06:15:07;;;;;;;7.82;5.78;;;18.10;99.90;;;;;;4878319;28;20122;-80
2022/07/23 06:17:34;;;;;;;16.05;12.10;;;18.30;99.90;;;;;;4896218;29;20051;-80
2022/07/23 06:20:00;;;;;;;6.75;3.58;;;18.50;99.90;;;;;;4916162;28;20051;-83
2022/07/23 06:22:26;;;;;;;5.03;2.83;;;18.60;99.90;;;;;;4875373;28;20059;-82
2022/07/23 06:24:52;;;;;;;8.43;3.22;;;18.70;99.90;;;;;;4893578;29;20058;-82
2022/07/23 06:27:20;;;;;;;5.60;3.47;;;18.80;99.90;;;;;;4893851;29;20106;-82
2022/07/23 06:29:46;;;;;;;9.18;5.10;;;18.80;99.90;;;;;;4863187;29;20039;-82
2022/07/23 06:32:12;;;;;;;6.63;5.53;;;19.00;99.90;;;;;;4876189;28;20058;-79
2022/07/23 06:34:38;;;;;;;4.07;1.83;;;19.00;99.90;;;;;;4906536;29;20051;-79
2022/07/23 06:37:05;;;;;;;5.07;2.33;;;19.10;99.90;;;;;;4878398;29;20248;-79
2022/07/23 06:39:31;;;;;;;5.78;2.38;;;19.30;99.90;;;;;;4875292;28;20229;-78
2022/07/23 06:41:58;;;;;;;4.90;3.58;;;19.40;99.90;;;;;;4909177;28;20471;-78
2022/07/23 06:44:36;;;;;;;3.83;1.88;;;19.50;99.90;;;;;;4879592;28;20083;-78
2022/07/23 06:47:07;;;;;;;4.40;1.90;;;19.20;99.90;;;;;;4884086;29;20048;-78
2022/07/23 06:49:36;;;;;;;4.10;2.20;;;19.20;99.90;;;;;;4941196;28;20047;-78
2022/07/23 06:52:15;;;;;;;4.60;2.13;;;19.30;99.90;;;;;;4907541;29;20511;-80
2022/07/23 06:54:41;;;;;;;4.75;3.05;;;19.60;99.90;;;;;;4896091;28;20303;-79
2022/07/23 06:57:07;;;;;;;2.35;1.10;;;19.80;99.90;;;;;;4894043;29;20594;-77
2022/07/23 06:59:36;;;;;;;14.48;11.82;;;19.70;99.90;;;;;;4875167;28;20054;-77
2022/07/23 07:02:02;;;;;;;3.92;1.23;;;20.00;99.90;;;;;;4862948;28;20413;-77
2022/07/23 07:04:29;;;;;;;4.38;1.35;;;20.00;99.90;;;;;;4913526;29;20150;-77
2022/07/23 07:06:55;;;;;;;2.40;0.98;;;20.20;99.90;;;;;;4862039;29;20050;-78
2022/07/23 07:09:21;;;;;;;6.15;1.83;;;20.50;99.90;;;;;;4861595;29;20060;-78
2022/07/23 07:11:47;;;;;;;4.32;1.40;;;20.70;99.90;;;;;;4892755;28;20137;-79
2022/07/23 07:14:13;;;;;;;2.80;1.13;;;21.00;99.90;;;;;;4860565;28;20583;-77
2022/07/23 07:16:39;;;;;;;7.03;3.58;;;21.00;99.90;;;;;;4888111;28;20046;-75
2022/07/23 07:19:05;;;;;;;4.03;1.67;;;21.30;99.90;;;;;;4888759;28;20051;-79
2022/07/23 07:21:32;;;;;;;3.50;1.00;;;21.40;99.90;;;;;;4877904;28;20047;-78
2022/07/23 07:23:58;;;;;;;3.35;1.05;;;21.60;99.90;;;;;;4901385;29;20160;-79
2022/07/23 07:26:28;;;;;;;2.13;0.70;;;21.70;99.90;;;;;;4892114;29;20174;-80
2022/07/23 07:28:54;;;;;;;3.97;0.90;;;21.80;99.90;;;;;;4892137;28;20175;-83
2022/07/23 07:31:23;;;;;;;2.83;2.10;;;21.80;99.90;;;;;;4863227;29;20109;-80
2022/07/23 07:33:52;;;;;;;2.55;0.93;;;21.60;99.90;;;;;;4874406;28;20777;-80
2022/07/23 07:36:18;;;;;;;1.55;0.77;;;21.90;99.90;;;;;;4891761;28;20526;-79
2022/07/23 07:38:45;;;;;;;3.38;1.00;;;21.70;99.90;;;;;;4874490;28;20582;-79
2022/07/23 07:41:12;;;;;;;2.28;0.95;;;21.60;99.90;;;;;;4907896;29;20059;-79
2022/07/23 07:43:38;;;;;;;1.80;0.63;;;21.60;99.90;;;;;;4886841;29;20598;-79
2022/07/23 07:46:09;;;;;;;3.63;1.20;;;21.70;99.90;;;;;;4876021;28;20070;-79
2022/07/23 07:48:37;;;;;;;4.32;1.27;;;21.20;99.90;;;;;;4923280;29;20051;-79
2022/07/23 07:51:04;;;;;;;2.83;0.80;;;21.10;99.90;;;;;;4878143;28;20054;-79
2022/07/23 07:53:30;;;;;;;3.92;1.65;;;21.30;99.90;;;;;;4895574;28;20179;-79
2022/07/23 07:55:56;;;;;;;3.85;1.25;;;21.30;99.90;;;;;;4876727;28;20078;-79
2022/07/23 07:58:22;;;;;;;4.25;2.13;;;21.00;99.90;;;;;;4879836;28;20095;-77
2022/07/23 08:00:48;;;;;;;2.83;0.90;;;20.60;99.90;;;;;;4903657;28;20433;-82
2022/07/23 08:03:15;;;;;;;2.00;1.00;;;20.90;99.90;;;;;;4890663;28;20054;-81
2022/07/23 08:05:41;;;;;;;2.38;0.88;;;21.30;99.90;;;;;;4881254;28;20451;-79
2022/07/23 08:08:09;;;;;;;4.97;4.47;;;20.90;99.90;;;;;;4906888;28;20059;-82
2022/07/23 08:10:35;;;;;;;3.70;2.22;;;20.80;99.90;;;;;;4908831;28;20456;-83
2022/07/23 08:13:01;;;;;;;5.43;1.75;;;20.80;99.90;;;;;;4865319;29;20043;-81
2022/07/23 08:15:29;;;;;;;6.25;1.55;;;20.60;99.90;;;;;;4897472;29;20046;-80
2022/07/23 08:17:56;;;;;;;3.08;0.70;;;21.00;99.90;;;;;;4894899;28;20897;-81
2022/07/23 08:20:23;;;;;;;2.30;0.73;;;21.40;99.90;;;;;;4917515;28;20083;-76
2022/07/23 08:22:50;;;;;;;14.82;13.35;;;21.60;99.90;;;;;;4907381;28;20146;-82
2022/07/23 08:25:26;;;;;;;2.10;0.60;;;21.40;99.90;;;;;;4905704;28;20067;-81
2022/07/23 08:27:53;;;;;;;1.65;0.50;;;21.70;99.90;;;;;;4894623;28;20779;-84
2022/07/23 08:30:19;;;;;;;1.83;0.40;;;21.70;99.90;;;;;;4910233;28;20072;-81
2022/07/23 08:32:54;;;;;;;1.38;0.38;;;21.60;99.90;;;;;;4908219;28;20047;-81
2022/07/23 08:35:29;;;;;;;1.75;0.40;;;21.30;99.90;;;;;;4893003;28;20439;-80
2022/07/23 08:37:56;;;;;;;0.60;0.50;;;21.00;99.90;;;;;;4942121;28;20523;-80
2022/07/23 08:40:25;;;;;;;1.90;0.50;;;21.30;99.90;;;;;;4894550;28;20133;-81
2022/07/23 08:42:51;;;;;;;4.47;0.82;;;21.80;99.90;;;;;;4907270;29;20052;-81
2022/07/23 08:45:20;;;;;;;0.90;0.50;;;22.10;99.90;;;;;;4878175;28;20364;-81
2022/07/23 08:47:55;;;;;;;1.15;0.32;;;22.30;99.90;;;;;;4890967;29;20575;-81
2022/07/23 08:50:22;;;;;;;1.55;0.40;;;22.50;99.90;;;;;;4893114;28;20054;-81
2022/07/23 08:52:50;;;;;;;0.50;0.40;;;22.80;99.90;;;;;;4939706;28;20849;-81
2022/07/23 08:55:17;;;;;;;1.35;0.30;;;23.00;99.90;;;;;;4924133;29;20783;-81
2022/07/23 08:57:47;;;;;;;0.57;0.30;;;23.30;99.90;;;;;;4862959;29;20799;-80
2022/07/23 09:00:14;;;;;;;0.60;0.20;;;23.50;97.20;;;;;;4909246;29;20146;-79
2022/07/23 09:02:42;;;;;;;1.75;0.68;;;23.40;98.10;;;;;;4891145;29;20047;-79
2022/07/23 09:05:10;;;;;;;2.55;0.52;;;24.00;92.40;;;;;;4893958;29;20125;-81
2022/07/23 09:07:57;;;;;;;1.63;0.40;;;24.40;90.70;;;;;;4878343;28;20059;-80
2022/07/23 09:10:23;;;;;;;0.68;0.35;;;24.40;96.40;;;;;;4906610;28;20047;-79
2022/07/23 09:12:49;;;;;;;1.58;0.40;;;23.90;96.30;;;;;;4906834;28;20051;-81
2022/07/23 09:15:15;;;;;;;2.22;0.40;;;23.80;94.50;;;;;;4876410;28;20058;-81
2022/07/23 09:17:43;;;;;;;1.67;0.40;;;23.20;98.70;;;;;;4883254;28;20050;-81
2022/07/23 09:20:13;;;;;;;1.45;0.40;;;23.70;98.90;;;;;;4889418;28;20114;-81
2022/07/23 09:22:46;;;;;;;3.08;0.88;;;23.70;95.70;;;;;;4910222;29;20055;-81
2022/07/23 09:25:18;;;;;;;3.13;0.80;;;24.20;95.30;;;;;;4873910;29;20045;-82
2022/07/23 09:27:53;;;;;;;4.95;3.13;;;23.50;92.30;;;;;;4893594;28;20051;-81
2022/07/23 09:30:30;;;;;;;1.45;0.40;;;24.10;96.90;;;;;;4908833;28;20059;-81
2022/07/23 09:33:15;;;;;;;1.48;0.40;;;23.80;96.80;;;;;;4892945;28;20051;-81
2022/07/23 09:35:54;;;;;;;0.90;0.30;;;23.40;96.10;;;;;;4887690;29;20499;-81
2022/07/23 09:38:23;;;;;;;1.77;0.70;;;23.10;94.10;;;;;;4910936;28;20058;-81
2022/07/23 09:41:08;;;;;;;1.15;0.47;;;22.90;97.00;;;;;;4911659;29;20522;-81
2022/07/23 09:43:34;;;;;;;1.55;0.50;;;22.80;93.40;;;;;;4880897;29;20054;-81
2022/07/23 09:46:21;;;;;;;0.90;0.40;;;23.30;97.10;;;;;;4891266;29;20046;-82
2022/07/23 09:48:47;;;;;;;3.15;0.60;;;24.00;95.60;;;;;;4905164;28;20106;-81
2022/07/23 09:51:47;;;;;;;1.25;0.43;;;24.60;93.50;;;;;;4899489;28;20050;-82
2022/07/23 09:54:19;;;;;;;2.60;0.50;;;25.20;89.30;;;;;;4894925;29;20093;-81
2022/07/23 09:56:47;;;;;;;0.73;0.30;;;25.70;79.10;;;;;;4912362;29;20043;-81
2022/07/23 09:59:17;;;;;;;1.02;0.30;;;25.90;75.60;;;;;;4889021;28;20057;-81
2022/07/23 10:01:45;;;;;;;2.70;0.73;;;25.50;73.80;;;;;;4892015;28;20701;-80
2022/07/23 10:04:12;;;;;;;1.65;0.47;;;24.80;77.50;;;;;;4895299;29;20039;-80
2022/07/23 10:07:03;;;;;;;1.95;0.65;;;24.20;82.90;;;;;;4880011;29;20044;-80
2022/07/23 10:09:52;;;;;;;2.63;0.60;;;24.30;83.70;;;;;;4889532;29;20051;-79
2022/07/23 10:15:34;;;;;;;2.97;1.05;;;23.80;91.30;;;;;;4839344;29;20117;-80
2022/07/23 10:18:00;;;;;;;2.78;0.45;;;23.60;91.20;;;;;;4880465;29;20135;-81
2022/07/23 10:20:27;;;;;;;2.35;0.60;;;24.00;88.60;;;;;;4859379;29;20489;-81
2022/07/23 10:23:33;;;;;;;1.13;0.68;;;24.80;85.70;;;;;;4871959;29;20077;-81
2022/07/23 10:26:22;;;;;;;1.65;0.57;;;25.20;74.20;;;;;;4867832;29;21111;-80
2022/07/23 10:29:13;;;;;;;1.55;0.50;;;26.10;68.20;;;;;;4901452;29;20044;-80
2022/07/23 10:31:53;;;;;;;1.67;0.50;;;26.30;71.90;;;;;;4899031;29;20057;-81
2022/07/23 10:34:54;;;;;;;1.55;0.63;;;26.00;68.80;;;;;;4856341;29;20107;-81
2022/07/23 10:37:26;;;;;;;;;;;26.20;65.20;;;;;;4864399;29;20500;-81
2022/07/23 10:40:12;;;;;;;2.83;0.70;;;26.00;63.10;;;;;;4879444;29;19930;-81
2022/07/23 10:42:38;;;;;;;1.85;0.55;;;25.50;71.50;;;;;;4904128;29;20563;-81
2022/07/23 10:45:29;;;;;;;2.67;0.80;;;25.10;75.20;;;;;;4872912;29;20222;-80
2022/07/23 10:48:11;;;;;;;2.08;0.60;;;24.80;81.70;;;;;;4901198;29;20524;-80
2022/07/23 10:50:38;;;;;;;1.30;0.70;;;24.80;84.40;;;;;;4863522;29;20056;-80
2022/07/23 10:53:08;;;;;;;2.92;0.82;;;25.10;87.80;;;;;;4875706;29;20617;-81
2022/07/23 10:55:34;;;;;;;1.73;0.60;;;26.10;87.40;;;;;;4890202;29;20055;-81
2022/07/23 10:58:01;;;;;;;2.40;0.68;;;25.70;73.60;;;;;;4886507;29;20487;-80
2022/07/23 11:00:29;;;;;;;1.48;0.65;;;25.50;73.90;;;;;;4876225;29;20560;-81
2022/07/23 11:02:59;;;;;;;1.33;0.63;;;25.30;73.70;;;;;;4860542;29;20047;-80
2022/07/23 11:05:38;;;;;;;2.33;0.90;;;25.90;80.20;;;;;;4904826;29;20054;-80
2022/07/23 11:08:08;;;;;;;3.17;0.68;;;25.90;70.00;;;;;;4880982;29;20138;-80
2022/07/23 11:10:39;;;;;;;1.38;0.80;;;25.80;72.80;;;;;;4900271;28;20039;-79
2022/07/23 11:13:24;;;;;;;1.13;0.60;;;25.40;71.40;;;;;;4939020;29;20103;-80
2022/07/23 11:16:05;;;;;;;3.13;1.00;;;25.50;69.80;;;;;;4909964;28;20065;-80
2022/07/23 11:18:44;;;;;;;1.83;0.80;;;25.20;73.10;;;;;;4961133;28;20047;-80
2022/07/23 11:21:31;;;;;;;1.75;0.80;;;25.60;72.50;;;;;;4932195;29;20078;-80
2022/07/23 11:24:04;;;;;;;3.53;1.20;;;25.20;80.10;;;;;;4903971;28;20051;-80
2022/07/23 11:26:48;;;;;;;1.48;0.80;;;25.40;75.80;;;;;;4873180;29;20065;-80
2022/07/23 11:29:27;;;;;;;2.58;1.10;;;25.90;71.70;;;;;;4896503;29;20613;-80
2022/07/23 11:32:02;;;;;;;2.35;1.10;;;26.00;68.60;;;;;;4897841;29;20055;-81
2022/07/23 11:34:40;;;;;;;1.42;0.85;;;26.60;68.20;;;;;;4878904;29;20508;-80
2022/07/23 11:37:10;;;;;;;2.53;1.20;;;26.10;67.00;;;;;;4908273;28;20047;-80
2022/07/23 11:39:38;;;;;;;2.58;0.93;;;26.10;65.50;;;;;;4898791;28;20122;-80
2022/07/23 11:42:07;;;;;;;1.85;1.05;;;25.80;68.60;;;;;;4895707;29;20522;-80
2022/07/23 11:44:36;;;;;;;2.15;1.00;;;25.60;76.60;;;;;;4899278;29;20122;-80
2022/07/23 11:47:05;;;;;;;2.20;1.00;;;25.60;77.90;;;;;;4882437;29;20610;-79
2022/07/23 11:49:32;;;;;;;3.15;1.25;;;25.90;87.40;;;;;;4915767;28;20050;-80
2022/07/23 11:52:12;;;;;;;1.35;0.82;;;26.30;79.40;;;;;;4879425;29;20047;-79
2022/07/23 11:54:57;;;;;;;2.42;1.00;;;26.30;70.50;;;;;;4894001;28;20054;-80
2022/07/23 11:57:35;;;;;;;1.83;0.85;;;25.90;71.20;;;;;;4933541;28;20066;-80
2022/07/23 12:00:10;;;;;;;2.63;1.20;;;25.50;74.50;;;;;;4910551;28;20452;-80
2022/07/23 12:02:51;;;;;;;1.67;1.20;;;26.60;67.50;;;;;;4894526;29;20192;-80
2022/07/23 12:05:20;;;;;;;3.42;1.13;;;26.60;69.40;;;;;;4878270;28;20171;-80
2022/07/23 12:07:51;;;;;;;2.35;1.00;;;26.40;69.60;;;;;;4881813;29;20051;-79
2022/07/23 12:10:20;;;;;;;1.92;0.80;;;26.30;71.80;;;;;;4906669;28;20048;-80
2022/07/23 12:12:52;;;;;;;2.15;1.00;;;25.50;76.10;;;;;;4910183;28;20122;-79
2022/07/23 12:15:22;;;;;;;2.45;1.50;;;26.20;78.20;;;;;;4924995;29;20117;-79
2022/07/23 12:17:50;;;;;;;2.47;1.30;;;26.30;76.40;;;;;;4893005;28;20053;-80
2022/07/23 12:20:22;;;;;;;3.92;1.27;;;26.90;74.50;;;;;;4907732;28;20043;-79
2022/07/23 12:22:51;;;;;;;3.30;1.05;;;27.70;63.80;;;;;;4911566;28;20070;-81
2022/07/23 12:25:23;;;;;;;2.15;1.20;;;27.80;63.40;;;;;;4895723;29;20051;-80
2022/07/23 12:28:09;;;;;;;2.90;1.10;;;27.50;60.90;;;;;;4925142;28;20047;-80
2022/07/23 12:30:44;;;;;;;2.38;1.10;;;27.40;60.20;;;;;;4925487;28;20051;-80
2022/07/23 12:33:21;;;;;;;3.00;1.15;;;26.90;62.70;;;;;;4925964;28;20159;-80
2022/07/23 12:35:48;;;;;;;1.52;1.13;;;26.40;71.70;;;;;;4892668;29;20106;-80
2022/07/23 12:38:16;;;;;;;2.85;1.33;;;26.30;74.20;;;;;;4907544;29;20055;-76
2022/07/23 12:40:47;;;;;;;2.55;1.25;;;26.50;73.50;;;;;;4892227;28;20109;-77
2022/07/23 12:43:21;;;;;;;4.25;1.40;;;26.80;72.70;;;;;;4909834;28;20059;-78
2022/07/23 12:46:07;;;;;;;3.28;1.58;;;26.00;70.00;;;;;;4910679;28;20043;-78
2022/07/23 12:48:40;;;;;;;3.47;1.75;;;25.90;76.20;;;;;;4910695;28;20051;-78
2022/07/23 12:51:07;;;;;;;3.38;1.30;;;26.10;80.70;;;;;;4909543;28;20051;-76
2022/07/23 12:53:40;;;;;;;4.60;2.15;;;25.90;85.70;;;;;;4906103;28;20397;-78
2022/07/23 12:56:13;;;;;;;4.10;1.50;;;25.50;77.40;;;;;;4921924;28;20885;-77
2022/07/23 12:58:42;;;;;;;2.75;1.38;;;25.50;83.00;;;;;;4921235;28;20094;-77
2022/07/23 13:01:09;;;;;;;2.40;1.50;;;25.90;87.60;;;;;;4894297;28;20531;-77
2022/07/23 13:03:41;;;;;;;16.50;14.85;;;26.40;80.40;;;;;;4918686;29;20065;-78